Time;durP1;ratioP1;P1;durP2;ratioP2;P2;SDS_P1;SDS_P2;PMS_P1;PMS_P2;Temp;Humidity;BMP_temperature;BMP_pressure;BME280_temperature;BME280_humidity;BME280_pressure;Samples;Min_cycle;Max_cycle;Signal;HPM_P1;HPM_P2
2021/10/19 00:01:59;;;;;;;14.45;9.73;;;;;;;14.78;59.61;100731.66;4992165;28;20066;-59
2021/10/19 00:04:28;;;;;;;14.02;10.65;;;;;;;14.76;59.98;100728.38;4992036;28;20504;-59
2021/10/19 00:06:55;;;;;;;14.63;10.70;;;;;;;14.78;59.56;100737.25;4991883;28;20069;-59
2021/10/19 00:09:23;;;;;;;13.23;10.98;;;;;;;14.71;60.14;100736.97;4992477;28;20596;-59
2021/10/19 00:11:50;;;;;;;12.65;9.98;;;;;;;14.68;60.33;100737.63;4992506;28;20054;-59
2021/10/19 00:14:17;;;;;;;14.55;11.05;;;;;;;14.70;60.15;100753.00;4995608;28;20050;-58
2021/10/19 00:16:45;;;;;;;12.93;10.75;;;;;;;14.71;60.20;100749.00;4995621;28;20054;-58
2021/10/19 00:19:12;;;;;;;14.07;10.90;;;;;;;14.70;60.24;100740.94;4995269;28;20054;-58
2021/10/19 00:21:41;;;;;;;14.30;11.35;;;;;;;14.64;60.22;100736.69;4996374;28;20069;-58
2021/10/19 00:24:08;;;;;;;13.50;11.43;;;;;;;14.69;59.90;100730.88;4995613;28;20409;-58
2021/10/19 00:26:35;;;;;;;14.65;10.90;;;;;;;14.72;60.20;100728.25;4995201;28;20130;-58
2021/10/19 00:29:03;;;;;;;13.73;10.93;;;;;;;14.75;60.18;100721.13;4995058;28;20054;-57
2021/10/19 00:31:30;;;;;;;11.65;9.93;;;;;;;14.73;59.90;100715.84;4995558;28;20385;-58
2021/10/19 00:33:57;;;;;;;12.43;10.43;;;;;;;14.71;60.35;100726.56;4995478;28;20062;-58
2021/10/19 00:36:25;;;;;;;13.52;10.75;;;;;;;14.76;60.58;100736.78;4984479;28;20054;-57
2021/10/19 00:38:53;;;;;;;13.15;10.48;;;;;;;14.73;60.59;100734.66;4975849;28;20054;-58
2021/10/19 00:41:22;;;;;;;14.60;11.17;;;;;;;14.79;60.55;100724.91;4976650;28;20055;-57
2021/10/19 00:43:50;;;;;;;14.00;10.53;;;;;;;14.82;60.20;100732.63;4976093;28;20059;-58
2021/10/19 00:46:18;;;;;;;13.50;10.48;;;;;;;14.80;60.36;100726.53;4989201;28;20058;-58
2021/10/19 00:48:46;;;;;;;14.23;10.77;;;;;;;14.83;60.33;100711.84;4995892;28;20058;-58
2021/10/19 00:51:15;;;;;;;13.17;10.47;;;;;;;14.90;60.07;100706.53;4995473;28;20065;-58
2021/10/19 00:53:43;;;;;;;14.00;10.87;;;;;;;14.90;59.91;100705.72;4996018;28;20604;-57
2021/10/19 00:56:12;;;;;;;11.98;9.60;;;;;;;14.90;60.09;100700.09;4994790;28;20394;-58
2021/10/19 00:58:41;;;;;;;12.05;9.63;;;;;;;14.90;60.14;100692.50;4995593;28;20050;-58
2021/10/19 01:01:10;;;;;;;11.82;9.75;;;;;;;14.92;60.46;100687.38;4995230;28;20062;-58
2021/10/19 01:03:37;;;;;;;12.23;9.73;;;;;;;14.94;60.02;100690.66;4995274;28;20054;-58
2021/10/19 01:06:06;;;;;;;11.52;8.73;;;;;;;14.99;60.00;100689.66;4993940;28;20054;-58
2021/10/19 01:08:33;;;;;;;12.40;9.65;;;;;;;15.01;60.03;100705.00;4995617;28;20046;-58
2021/10/19 01:11:01;;;;;;;11.52;9.50;;;;;;;15.05;59.94;100695.88;4995255;28;20072;-59
2021/10/19 01:13:30;;;;;;;13.05;9.88;;;;;;;15.10;59.98;100698.50;4994874;28;20047;-59
2021/10/19 01:16:04;;;;;;;15.40;10.35;;;;;;;15.10;59.97;100698.50;4994318;28;20061;-59
2021/10/19 01:18:33;;;;;;;13.02;9.98;;;;;;;15.09;60.04;100696.84;4994785;28;20059;-59
2021/10/19 01:21:03;;;;;;;11.38;9.40;;;;;;;15.16;59.76;100694.31;4995185;28;20057;-59
2021/10/19 01:23:30;;;;;;;13.00;9.88;;;;;;;15.14;59.92;100682.63;4994494;28;20058;-59
2021/10/19 01:25:58;;;;;;;10.30;8.23;;;;;;;15.02;60.12;100680.56;4987030;28;20431;-58
2021/10/19 01:28:25;;;;;;;12.98;9.38;;;;;;;15.17;59.89;100681.94;4994590;28;20445;-59
2021/10/19 01:30:54;;;;;;;11.98;9.05;;;;;;;15.11;60.16;100677.69;4993932;28;20393;-59
2021/10/19 01:33:21;;;;;;;11.47;9.13;;;;;;;15.27;59.80;100675.13;4994628;28;20050;-59
2021/10/19 01:35:49;;;;;;;10.85;8.40;;;;;;;15.26;59.67;100668.66;4989970;28;20494;-59
2021/10/19 01:38:20;;;;;;;10.80;8.27;;;;;;;15.32;59.58;100672.09;4974846;28;20066;-59
2021/10/19 01:40:47;;;;;;;12.00;8.90;;;;;;;15.34;59.83;100675.41;4977504;28;20054;-59
2021/10/19 01:43:16;;;;;;;12.63;9.57;;;;;;;15.35;59.63;100666.63;4994056;28;20050;-58
2021/10/19 01:45:44;;;;;;;11.63;9.40;;;;;;;15.32;59.68;100666.50;4992845;28;20424;-58
2021/10/19 01:48:11;;;;;;;12.75;9.57;;;;;;;15.37;60.17;100669.94;4994256;28;20058;-59
2021/10/19 01:50:39;;;;;;;11.30;8.95;;;;;;;15.40;59.84;100660.81;4994194;28;20391;-59
2021/10/19 01:53:07;;;;;;;11.27;9.27;;;;;;;15.34;60.07;100679.00;4994061;28;20058;-58
2021/10/19 01:55:36;;;;;;;11.75;8.98;;;;;;;15.51;59.43;100674.44;4992016;28;20054;-58
2021/10/19 01:58:04;;;;;;;10.30;8.50;;;;;;;15.56;59.13;100677.03;4974836;28;20055;-58
2021/10/19 02:00:32;;;;;;;10.98;9.15;;;;;;;15.60;59.26;100677.97;4974270;28;20061;-59
2021/10/19 02:02:59;;;;;;;11.48;8.90;;;;;;;15.66;59.16;100676.59;4974136;28;20065;-58
2021/10/19 02:05:26;;;;;;;10.95;9.25;;;;;;;15.71;58.82;100679.22;4974453;28;20051;-59
2021/10/19 02:07:54;;;;;;;11.57;8.82;;;;;;;15.68;59.21;100671.47;4992821;28;20073;-58
2021/10/19 02:10:21;;;;;;;11.23;8.65;;;;;;;15.72;58.92;100680.88;4993492;28;20151;-58
2021/10/19 02:12:50;;;;;;;12.20;9.45;;;;;;;15.71;58.86;100676.41;4993762;28;20054;-58
2021/10/19 02:15:17;;;;;;;10.87;8.77;;;;;;;15.70;58.96;100677.56;4993354;28;20401;-58
2021/10/19 02:17:45;;;;;;;13.25;9.77;;;;;;;15.65;59.45;100669.34;4993065;28;20054;-59
2021/10/19 02:20:13;;;;;;;11.35;9.05;;;;;;;15.63;59.77;100664.06;4993479;28;20054;-58
2021/10/19 02:22:40;;;;;;;12.50;9.45;;;;;;;15.62;59.62;100653.19;4993518;28;20061;-59
2021/10/19 02:25:08;;;;;;;12.70;10.05;;;;;;;15.67;59.49;100654.97;4993488;28;20061;-58
2021/10/19 02:27:35;;;;;;;13.25;10.07;;;;;;;15.69;59.54;100661.88;4989712;28;20054;-59
2021/10/19 02:30:04;;;;;;;12.35;10.00;;;;;;;15.62;59.75;100658.81;4993916;28;20485;-59
2021/10/19 02:32:34;;;;;;;10.52;9.20;;;;;;;15.66;59.83;100664.56;4993885;28;20058;-58
2021/10/19 02:35:01;;;;;;;13.45;9.68;;;;;;;15.67;59.91;100654.97;4993161;28;20377;-58
2021/10/19 02:37:29;;;;;;;12.27;9.68;;;;;;;15.56;60.22;100654.56;4980975;28;20051;-59
2021/10/19 02:39:56;;;;;;;11.98;9.98;;;;;;;15.67;59.99;100663.41;4973979;28;20061;-59
2021/10/19 02:42:23;;;;;;;12.00;9.93;;;;;;;15.68;59.83;100663.03;4973427;28;20485;-58
2021/10/19 02:44:51;;;;;;;11.25;9.95;;;;;;;15.49;60.59;100659.91;4973873;28;20054;-59
2021/10/19 02:47:19;;;;;;;11.43;10.00;;;;;;;15.59;60.54;100651.09;4984952;28;20054;-58
2021/10/19 02:49:47;;;;;;;12.57;9.83;;;;;;;15.54;60.40;100645.66;4993377;28;20062;-59
2021/10/19 02:52:14;;;;;;;13.48;9.90;;;;;;;15.58;60.48;100652.22;4992668;28;20484;-59
2021/10/19 02:54:41;;;;;;;11.68;9.48;;;;;;;15.60;60.61;100644.28;4993105;28;20066;-59
2021/10/19 02:57:09;;;;;;;11.98;9.75;;;;;;;15.64;60.34;100656.47;4985796;28;20416;-58
2021/10/19 02:59:36;;;;;;;11.93;10.38;;;;;;;15.59;60.62;100637.03;4973750;28;20473;-58
2021/10/19 03:02:04;;;;;;;13.35;9.23;;;;;;;15.56;60.41;100630.13;4973356;28;20444;-59
2021/10/19 03:04:33;;;;;;;13.30;10.43;;;;;;;15.62;60.34;100642.78;4973525;28;20370;-57
2021/10/19 03:07:00;;;;;;;11.40;9.40;;;;;;;15.62;60.45;100641.94;4980764;28;20516;-58
2021/10/19 03:09:27;;;;;;;11.25;9.60;;;;;;;15.65;60.41;100638.47;4992771;28;20065;-58
2021/10/19 03:11:55;;;;;;;12.77;9.38;;;;;;;15.52;60.97;100628.38;4993061;28;20065;-58
2021/10/19 03:14:22;;;;;;;11.00;9.65;;;;;;;15.50;60.79;100634.31;4992676;28;20397;-58
2021/10/19 03:16:49;;;;;;;13.13;9.57;;;;;;;15.50;61.03;100637.13;4991856;28;20046;-58
2021/10/19 03:19:16;;;;;;;12.73;10.57;;;;;;;15.39;61.21;100633.06;4982407;28;20054;-57
2021/10/19 03:21:45;;;;;;;11.38;9.55;;;;;;;15.48;61.14;100633.03;4973257;28;20058;-57
2021/10/19 03:24:12;;;;;;;12.53;9.53;;;;;;;15.47;61.27;100634.16;4973441;28;20058;-58
2021/10/19 03:26:40;;;;;;;12.65;10.18;;;;;;;15.41;61.59;100637.19;4975955;28;20489;-59
2021/10/19 03:29:07;;;;;;;11.73;9.73;;;;;;;15.46;61.59;100643.78;4992473;28;20061;-59
2021/10/19 03:31:35;;;;;;;14.10;9.77;;;;;;;15.40;61.64;100635.53;4991763;28;20054;-58
2021/10/19 03:34:03;;;;;;;13.38;9.88;;;;;;;15.43;61.41;100629.25;4976451;28;20062;-58
2021/10/19 03:36:33;;;;;;;12.27;9.23;;;;;;;15.43;61.82;100618.03;4973604;28;20055;-59
2021/10/19 03:39:02;;;;;;;13.55;9.95;;;;;;;15.41;62.10;100617.56;4986722;28;20050;-58
2021/10/19 03:41:29;;;;;;;12.38;10.15;;;;;;;15.28;62.43;100606.59;4992635;28;20477;-59
2021/10/19 03:43:56;;;;;;;11.98;10.18;;;;;;;15.13;63.38;100613.66;4992025;28;20050;-59
2021/10/19 03:46:24;;;;;;;12.23;9.57;;;;;;;15.27;63.27;100622.63;4991605;28;20054;-59
2021/10/19 03:48:51;;;;;;;11.70;8.95;;;;;;;15.21;63.46;100619.19;4992640;28;20055;-59
2021/10/19 03:51:19;;;;;;;11.85;9.88;;;;;;;15.31;63.66;100619.97;4995738;28;20061;-59
2021/10/19 03:53:46;;;;;;;12.20;9.57;;;;;;;15.26;63.79;100612.53;4996180;28;20168;-58
2021/10/19 03:56:15;;;;;;;12.93;9.80;;;;;;;15.32;64.14;100616.78;4996357;28;20061;-59
2021/10/19 03:58:42;;;;;;;13.48;10.75;;;;;;;15.16;65.43;100612.97;4995451;28;20061;-59
2021/10/19 04:01:10;;;;;;;13.45;10.40;;;;;;;15.17;66.65;100623.03;4996388;28;20061;-59
2021/10/19 04:03:37;;;;;;;14.63;11.30;;;;;;;15.13;67.31;100613.66;4995695;28;20065;-59
2021/10/19 04:06:04;;;;;;;13.63;10.70;;;;;;;14.91;68.17;100612.81;4996570;28;20050;-59
2021/10/19 04:08:32;;;;;;;16.50;13.32;;;;;;;15.04;69.81;100610.91;4994921;28;20065;-59
2021/10/19 04:10:59;;;;;;;15.50;12.38;;;;;;;14.97;69.64;100614.28;4996039;28;20050;-58
2021/10/19 04:13:30;;;;;;;14.68;12.40;;;;;;;14.89;70.15;100608.69;4996132;28;20061;-58
2021/10/19 04:15:58;;;;;;;18.90;14.75;;;;;;;14.85;71.11;100600.16;4996133;28;20508;-58
2021/10/19 04:18:25;;;;;;;16.02;12.05;;;;;;;14.86;70.28;100598.97;4994669;28;20480;-59
2021/10/19 04:20:55;;;;;;;14.95;12.77;;;;;;;14.71;71.31;100599.59;4996163;28;20386;-58
2021/10/19 04:23:22;;;;;;;15.63;11.85;;;;;;;14.64;71.45;100588.09;4994870;28;20058;-58
2021/10/19 04:25:49;;;;;;;16.63;12.02;;;;;;;14.64;71.46;100583.31;4996009;28;20504;-58
2021/10/19 04:28:17;;;;;;;13.20;10.80;;;;;;;14.48;71.82;100580.22;4994986;28;20058;-58
2021/10/19 04:30:47;;;;;;;15.25;11.90;;;;;;;14.46;72.37;100571.34;4995780;28;20058;-58
2021/10/19 04:33:14;;;;;;;15.27;11.77;;;;;;;14.29;73.42;100572.25;4995318;28;20069;-58
2021/10/19 04:35:43;;;;;;;15.20;13.00;;;;;;;14.36;73.56;100574.53;4995027;28;20050;-58
2021/10/19 04:38:11;;;;;;;13.85;12.05;;;;;;;14.41;73.62;100579.94;4983245;28;20391;-58
2021/10/19 04:40:38;;;;;;;16.58;12.88;;;;;;;14.30;74.23;100575.88;4975884;28;20058;-58
2021/10/19 04:43:06;;;;;;;15.57;12.18;;;;;;;14.44;73.61;100579.25;4975726;28;20054;-58
2021/10/19 04:45:33;;;;;;;18.10;12.40;;;;;;;14.45;74.20;100583.72;4975737;28;20477;-58
2021/10/19 04:48:02;;;;;;;18.25;13.23;;;;;;;14.50;74.77;100586.31;4984245;28;20049;-58
2021/10/19 04:50:30;;;;;;;19.83;13.05;;;;;;;14.50;75.17;100575.09;4994976;28;20069;-59
2021/10/19 04:52:58;;;;;;;16.65;12.50;;;;;;;14.44;75.44;100576.44;4995244;28;20065;-58
2021/10/19 04:55:25;;;;;;;17.88;13.90;;;;;;;14.59;75.27;100572.28;4994459;28;21895;-59
2021/10/19 04:57:53;;;;;;;16.88;13.52;;;;;;;14.54;75.53;100562.06;4993979;28;20057;-59
2021/10/19 05:00:20;;;;;;;16.20;12.13;;;;;;;14.63;74.75;100561.22;4993669;28;20050;-58
2021/10/19 05:02:49;;;;;;;15.10;11.38;;;;;;;14.66;74.63;100557.72;4995191;28;20050;-59
2021/10/19 05:05:19;;;;;;;16.25;12.73;;;;;;;14.74;74.50;100551.22;4994796;28;20057;-58
2021/10/19 05:07:46;;;;;;;12.93;10.57;;;;;;;14.72;75.05;100553.56;4975822;28;20062;-59
2021/10/19 05:10:14;;;;;;;15.55;11.35;;;;;;;14.69;75.18;100554.25;4975623;28;20051;-59
2021/10/19 05:12:41;;;;;;;13.02;9.93;;;;;;;14.64;75.19;100541.25;4988743;28;20102;-59
2021/10/19 05:15:09;;;;;;;12.27;8.32;;;;;;;14.72;74.63;100528.31;4975031;28;20139;-59
2021/10/19 05:17:37;;;;;;;10.73;8.73;;;;;;;14.73;74.96;100521.56;4985968;28;20038;-59
2021/10/19 05:20:06;;;;;;;11.45;8.73;;;;;;;14.70;74.91;100513.81;5000454;28;20058;-58
2021/10/19 05:22:35;;;;;;;11.60;8.70;;;;;;;14.73;74.91;100511.16;4996147;28;20054;-59
2021/10/19 05:25:02;;;;;;;;;;;;;;;14.53;74.71;100507.16;4995555;28;20132;-59
2021/10/19 05:27:30;;;;;;;9.35;7.63;;;;;;;14.74;74.51;100495.16;4994970;28;19922;-59
2021/10/19 05:29:57;;;;;;;9.13;7.25;;;;;;;14.84;73.98;100508.75;4994964;28;20058;-58
2021/10/19 05:32:24;;;;;;;8.15;6.88;;;;;;;14.84;73.55;100524.78;4997796;28;20531;-58
2021/10/19 05:34:52;;;;;;;8.32;6.82;;;;;;;14.82;74.08;100513.91;4996219;28;20058;-58
2021/10/19 05:37:19;;;;;;;7.47;6.07;;;;;;;14.84;73.49;100519.16;5001478;28;20050;-59
2021/10/19 05:39:48;;;;;;;8.23;6.57;;;;;;;14.81;73.45;100529.91;4993831;28;20062;-59
2021/10/19 05:42:15;;;;;;;8.93;6.18;;;;;;;14.97;73.32;100523.66;4994592;28;20486;-58
2021/10/19 05:44:42;;;;;;;7.05;5.80;;;;;;;15.05;73.20;100531.19;4994395;28;20054;-59
2021/10/19 05:47:10;;;;;;;6.72;5.85;;;;;;;15.06;72.78;100532.03;5006537;28;20056;-59
2021/10/19 05:49:37;;;;;;;6.82;5.47;;;;;;;15.07;73.03;100533.66;5013829;28;20054;-58
2021/10/19 05:52:05;;;;;;;6.68;5.90;;;;;;;15.10;72.60;100528.19;5013780;28;20054;-59
2021/10/19 05:54:32;;;;;;;6.07;4.95;;;;;;;15.00;72.83;100532.22;5013630;28;20046;-59
2021/10/19 05:57:01;;;;;;;6.80;5.15;;;;;;;15.13;72.54;100530.28;5002733;28;20520;-58
2021/10/19 05:59:28;;;;;;;6.88;5.13;;;;;;;15.11;72.46;100529.00;4994060;28;20058;-58
2021/10/19 06:01:59;;;;;;;5.50;4.90;;;;;;;15.09;72.77;100531.34;5009969;28;20058;-59
2021/10/19 06:04:27;;;;;;;5.72;5.13;;;;;;;15.15;72.48;100532.78;5004880;28;20061;-58
2021/10/19 06:06:56;;;;;;;5.32;4.63;;;;;;;15.07;72.47;100542.88;5000717;28;20056;-58
2021/10/19 06:09:23;;;;;;;5.30;4.47;;;;;;;15.13;72.40;100538.72;5012852;28;20057;-58
2021/10/19 06:11:52;;;;;;;5.30;4.80;;;;;;;15.07;72.38;100547.69;5011342;28;20497;-59
2021/10/19 06:14:22;;;;;;;5.57;4.35;;;;;;;15.07;72.51;100533.66;5004166;28;20066;-58
2021/10/19 06:16:50;;;;;;;5.82;4.55;;;;;;;15.12;71.94;100539.91;5011113;28;20046;-58
2021/10/19 06:19:17;;;;;;;5.97;5.20;;;;;;;15.08;72.66;100532.50;5010467;28;20064;-58
2021/10/19 06:21:45;;;;;;;6.72;5.32;;;;;;;15.14;72.55;100548.78;5007816;28;20439;-58
2021/10/19 06:24:12;;;;;;;5.40;4.90;;;;;;;15.16;72.78;100537.19;5001715;28;20074;-58
2021/10/19 06:26:40;;;;;;;6.03;5.00;;;;;;;15.22;72.53;100539.47;4993249;28;20050;-58
2021/10/19 06:29:09;;;;;;;5.78;4.63;;;;;;;14.95;72.90;100540.03;4993402;28;20054;-59
2021/10/19 06:31:40;;;;;;;7.43;4.88;;;;;;;15.10;72.57;100524.53;5012164;28;20065;-59
2021/10/19 06:34:08;;;;;;;6.30;5.30;;;;;;;14.94;73.16;100528.00;5001603;28;20054;-58
2021/10/19 06:36:36;;;;;;;6.10;5.13;;;;;;;14.97;73.44;100532.94;4993287;28;20535;-58
2021/10/19 06:39:04;;;;;;;5.22;4.45;;;;;;;14.98;73.00;100531.75;4994039;28;20054;-58
2021/10/19 06:41:32;;;;;;;4.60;3.72;;;;;;;14.92;73.10;100529.50;4987165;28;20054;-59
2021/10/19 06:43:59;;;;;;;4.85;4.05;;;;;;;15.07;72.59;100530.84;4993599;28;20054;-57
2021/10/19 06:46:27;;;;;;;5.30;4.10;;;;;;;15.04;72.87;100537.97;4993360;28;20501;-59
2021/10/19 06:48:56;;;;;;;4.53;4.00;;;;;;;15.04;72.88;100543.59;4993320;28;20061;-58
2021/10/19 06:51:24;;;;;;;5.15;3.80;;;;;;;15.09;72.77;100536.94;5012985;28;20520;-58
2021/10/19 06:53:51;;;;;;;4.13;3.25;;;;;;;15.16;72.11;100538.03;5012401;28;20068;-59
2021/10/19 06:56:18;;;;;;;3.75;3.25;;;;;;;15.02;72.51;100527.09;5012842;28;20485;-58
2021/10/19 06:58:45;;;;;;;3.95;3.25;;;;;;;15.16;72.21;100524.00;4998850;28;20065;-59
2021/10/19 07:01:13;;;;;;;4.82;3.25;;;;;;;15.07;72.62;100519.63;4992983;28;20409;-58
2021/10/19 07:03:43;;;;;;;4.18;3.00;;;;;;;15.14;72.55;100514.28;4992752;28;20054;-58
2021/10/19 07:06:12;;;;;;;4.38;3.40;;;;;;;15.31;72.03;100504.91;4993061;28;20401;-58
2021/10/19 07:08:40;;;;;;;4.90;3.17;;;;;;;14.86;74.84;100520.47;4992539;28;20057;-54
2021/10/19 07:11:08;;;;;;;4.00;2.70;;;;;;;15.22;72.92;100519.00;4984667;28;20058;-58
2021/10/19 07:13:35;;;;;;;3.45;2.78;;;;;;;15.25;72.26;100521.13;4983343;28;20062;-59
2021/10/19 07:16:03;;;;;;;3.67;2.83;;;;;;;15.31;72.64;100519.75;4980273;28;20058;-57
2021/10/19 07:18:30;;;;;;;3.40;2.70;;;;;;;15.18;72.98;100520.84;4972314;28;20059;-59
2021/10/19 07:20:57;;;;;;;4.05;2.85;;;;;;;15.46;71.63;100517.47;4989397;28;20062;-58
2021/10/19 07:23:26;;;;;;;3.15;2.50;;;;;;;15.45;72.37;100507.38;4990034;28;20054;-59
2021/10/19 07:25:54;;;;;;;3.07;2.30;;;;;;;15.29;72.76;100515.66;4991137;28;20536;-59
2021/10/19 07:28:21;;;;;;;2.75;2.22;;;;;;;15.54;71.56;100516.50;5003464;28;20485;-58
2021/10/19 07:30:48;;;;;;;3.15;2.20;;;;;;;15.58;71.21;100517.47;5004708;28;20049;-58
2021/10/19 07:33:15;;;;;;;2.72;2.33;;;;;;;15.69;71.11;100513.06;4994625;28;20085;-59
2021/10/19 07:35:45;;;;;;;2.75;2.35;;;;;;;15.67;71.26;100515.41;4990144;28;20490;-60
2021/10/19 07:38:13;;;;;;;5.10;2.35;;;;;;;15.73;70.65;100533.69;5000349;28;20057;-60
2021/10/19 07:40:42;;;;;;;2.38;1.98;;;;;;;15.69;70.94;100535.53;5003186;28;20054;-59
2021/10/19 07:43:09;;;;;;;2.88;2.10;;;;;;;15.90;70.09;100524.25;5007365;28;20061;-60
2021/10/19 07:45:37;;;;;;;3.17;1.80;;;;;;;15.90;70.28;100524.25;5000655;28;20057;-62
2021/10/19 07:48:05;;;;;;;3.15;1.83;;;;;;;15.93;69.85;100528.34;4992497;28;20519;-59
2021/10/19 07:50:32;;;;;;;3.17;1.67;;;;;;;15.86;70.06;100528.09;4995374;28;20543;-60
2021/10/19 07:53:01;;;;;;;2.45;1.95;;;;;;;15.61;71.03;100534.44;5011435;28;20056;-60
2021/10/19 07:55:33;;;;;;;2.58;1.88;;;;;;;15.54;71.33;100538.97;5001480;28;20417;-60
2021/10/19 07:58:01;;;;;;;2.50;1.80;;;;;;;15.70;70.93;100539.16;4997275;28;20045;-59
2021/10/19 08:00:30;;;;;;;2.60;1.70;;;;;;;15.68;71.04;100528.25;4996969;28;20054;-59
2021/10/19 08:03:00;;;;;;;1.80;1.50;;;;;;;15.70;70.99;100531.53;4990844;28;20078;-59
2021/10/19 08:05:29;;;;;;;2.40;1.80;;;;;;;15.85;70.78;100544.09;5003275;28;20058;-59
2021/10/19 08:08:07;;;;;;;2.95;1.67;;;;;;;15.77;71.00;100534.63;4997231;28;20050;-59
2021/10/19 08:10:35;;;;;;;3.10;1.80;;;;;;;15.81;71.15;100538.38;4999763;28;20053;-59
2021/10/19 08:13:04;;;;;;;2.15;1.63;;;;;;;15.93;70.96;100531.13;5008345;28;20484;-60
2021/10/19 08:15:32;;;;;;;2.15;1.48;;;;;;;16.05;70.39;100531.16;4998961;28;20061;-59
2021/10/19 08:18:00;;;;;;;2.25;1.45;;;;;;;16.18;70.13;100524.34;4994290;28;20050;-59
2021/10/19 08:20:27;;;;;;;2.17;1.60;;;;;;;16.24;69.83;100531.38;4986475;28;20054;-59
2021/10/19 08:22:54;;;;;;;2.03;1.58;;;;;;;16.21;70.14;100534.91;4994627;28;20059;-59
2021/10/19 08:25:25;;;;;;;3.35;1.60;;;;;;;16.22;70.46;100535.72;4996226;28;20050;-60
2021/10/19 08:27:52;;;;;;;2.00;1.40;;;;;;;16.20;70.36;100541.69;4986763;28;20065;-60
2021/10/19 08:30:22;;;;;;;2.13;1.50;;;;;;;16.15;70.48;100538.31;4996297;28;20503;-59
2021/10/19 08:32:50;;;;;;;1.58;1.05;;;;;;;16.04;70.83;100540.75;4993870;28;20488;-60
2021/10/19 08:35:19;;;;;;;1.67;1.30;;;;;;;16.03;71.10;100525.88;4995503;28;20054;-60
2021/10/19 08:37:47;;;;;;;2.10;1.30;;;;;;;16.06;70.98;100526.34;4995055;28;20057;-59
2021/10/19 08:40:14;;;;;;;2.05;1.30;;;;;;;16.24;70.47;100522.16;4994647;28;20503;-59
2021/10/19 08:42:44;;;;;;;1.70;1.10;;;;;;;16.24;70.36;100517.34;5006714;28;20519;-60
2021/10/19 08:45:13;;;;;;;2.28;1.30;;;;;;;16.29;70.52;100507.84;4996337;28;20493;-59
2021/10/19 08:47:43;;;;;;;2.22;1.23;;;;;;;16.29;70.50;100516.28;5002156;28;20489;-60
2021/10/19 08:50:12;;;;;;;1.38;0.90;;;;;;;16.13;71.13;100510.56;5004097;28;20049;-59
2021/10/19 08:52:39;;;;;;;2.08;1.15;;;;;;;16.31;70.58;100513.94;4997791;28;20058;-59
2021/10/19 08:55:07;;;;;;;2.22;1.30;;;;;;;16.14;71.18;100512.19;4995263;28;20049;-58
2021/10/19 08:57:35;;;;;;;1.40;1.00;;;;;;;16.01;71.91;100508.56;5008355;28;20050;-59
2021/10/19 09:00:04;;;;;;;1.77;0.98;;;;;;;16.05;71.87;100519.91;4999374;28;20050;-59
2021/10/19 09:02:36;;;;;;;1.55;1.00;;;;;;;16.19;71.62;100519.56;5010533;28;20054;-59
2021/10/19 09:05:07;;;;;;;2.08;1.20;;;;;;;16.30;71.15;100525.53;5005598;28;20051;-60
2021/10/19 09:07:35;;;;;;;1.50;1.00;;;;;;;16.32;71.18;100509.97;4995132;28;20050;-59
2021/10/19 09:10:14;;;;;;;2.00;1.20;;;;;;;16.35;71.23;100508.44;4997143;28;20047;-59
2021/10/19 09:12:52;;;;;;;1.80;0.90;;;;;;;16.08;71.92;100498.72;5008162;28;20404;-59
2021/10/19 09:15:22;;;;;;;2.10;0.90;;;;;;;16.35;71.24;100500.00;4994810;28;20046;-59
2021/10/19 09:17:50;;;;;;;2.75;0.93;;;;;;;16.44;70.67;100503.50;4994262;28;20066;-59
2021/10/19 09:20:19;;;;;;;1.40;0.90;;;;;;;16.45;70.84;100488.28;5002382;28;20495;-59
2021/10/19 09:22:57;;;;;;;1.92;1.00;;;;;;;16.57;70.29;100491.06;5002993;28;20061;-59
2021/10/19 09:25:31;;;;;;;1.60;0.98;;;;;;;16.68;70.22;100484.94;5002783;28;20070;-58
2021/10/19 09:28:00;;;;;;;1.83;0.98;;;;;;;16.75;70.03;100488.78;4995902;28;20061;-58
2021/10/19 09:30:40;;;;;;;1.40;0.88;;;;;;;16.87;69.44;100506.84;4998566;28;20050;-59
2021/10/19 09:33:08;;;;;;;;;;;;;;;16.61;70.20;100497.63;4999733;28;20054;-59
2021/10/19 09:35:37;;;;;;;1.20;0.68;;;;;;;16.79;70.01;100467.19;4994523;28;19921;-59
2021/10/19 09:38:06;;;;;;;1.48;0.70;;;;;;;16.89;69.84;100476.38;4994278;28;20054;-59
2021/10/19 09:40:35;;;;;;;1.48;0.80;;;;;;;16.88;70.20;100483.97;5001461;28;20058;-59
2021/10/19 09:43:04;;;;;;;1.40;0.90;;;;;;;16.90;70.03;100484.41;4995860;28;20543;-59
2021/10/19 09:45:33;;;;;;;1.48;0.95;;;;;;;16.89;69.63;100494.06;4993211;28;20169;-58
2021/10/19 09:48:01;;;;;;;1.48;0.88;;;;;;;17.03;69.42;100491.66;5005299;28;20053;-59
2021/10/19 09:50:30;;;;;;;1.08;0.70;;;;;;;17.05;69.12;100496.94;5000550;28;20417;-59
2021/10/19 09:52:58;;;;;;;1.95;0.70;;;;;;;17.18;68.94;100497.72;5009064;28;20086;-59
2021/10/19 09:55:29;;;;;;;1.43;0.70;;;;;;;17.20;68.86;100495.34;5005459;28;20069;-59
2021/10/19 09:57:57;;;;;;;1.80;1.00;;;;;;;17.31;68.39;100495.66;4993218;28;20404;-59
2021/10/19 10:00:27;;;;;;;1.90;0.90;;;;;;;17.31;68.20;100502.09;4981919;28;20409;-60
2021/10/19 10:02:59;;;;;;;1.10;0.68;;;;;;;17.38;68.43;100490.19;4988851;28;20046;-60
2021/10/19 10:05:26;;;;;;;1.35;0.80;;;;;;;17.44;68.20;100500.03;5001045;28;20057;-60
2021/10/19 10:07:54;;;;;;;1.50;0.80;;;;;;;17.53;68.08;100489.41;5009932;28;20404;-59
2021/10/19 10:10:26;;;;;;;1.10;0.70;;;;;;;17.42;68.50;100497.56;4993443;28;20537;-59
2021/10/19 10:13:01;;;;;;;2.00;0.68;;;;;;;17.69;67.52;100497.06;5006800;28;20061;-58
2021/10/19 10:15:33;;;;;;;1.50;0.80;;;;;;;17.63;67.79;100496.50;4993671;28;20047;-59
2021/10/19 10:18:02;;;;;;;1.27;0.80;;;;;;;17.85;67.29;100492.28;4990386;28;20480;-60
2021/10/19 10:20:32;;;;;;;1.27;0.88;;;;;;;17.74;67.79;100503.22;4995545;28;20274;-59
2021/10/19 10:22:59;;;;;;;1.55;0.80;;;;;;;17.72;67.91;100496.31;4993222;28;20077;-59
2021/10/19 10:25:37;;;;;;;2.28;1.25;;;;;;;17.89;67.58;100500.81;4999831;28;20057;-59
2021/10/19 10:28:11;;;;;;;1.77;0.70;;;;;;;17.81;67.88;100492.16;5008005;28;20062;-59
2021/10/19 10:30:38;;;;;;;1.90;1.05;;;;;;;17.96;67.42;100481.28;4997393;28;20378;-59
2021/10/19 10:33:07;;;;;;;1.58;0.70;;;;;;;17.86;67.77;100488.28;5000470;28;20053;-60
2021/10/19 10:35:35;;;;;;;1.55;0.60;;;;;;;17.81;67.82;100489.34;4997346;28;20061;-59
2021/10/19 10:38:04;;;;;;;1.25;0.77;;;;;;;17.80;67.88;100493.31;4988594;28;20046;-59
2021/10/19 10:40:34;;;;;;;1.23;0.60;;;;;;;17.65;68.41;100497.78;4991310;28;20069;-59
2021/10/19 10:43:16;;;;;;;1.13;0.60;;;;;;;17.57;68.42;100487.50;4994026;28;20050;-59
2021/10/19 10:45:43;;;;;;;1.15;0.60;;;;;;;17.51;69.22;100488.13;4992765;28;20057;-59
2021/10/19 10:48:11;;;;;;;1.92;0.60;;;;;;;17.48;69.44;100494.50;4993059;28;20416;-59
2021/10/19 10:50:39;;;;;;;1.05;0.60;;;;;;;17.34;69.96;100490.09;4990967;28;20046;-60
2021/10/19 10:53:08;;;;;;;1.40;0.60;;;;;;;17.36;69.96;100490.56;4991198;28;20051;-59
2021/10/19 10:55:40;;;;;;;1.20;0.70;;;;;;;17.22;70.46;100493.81;4992643;28;20051;-58
2021/10/19 10:58:07;;;;;;;1.10;0.70;;;;;;;17.33;70.19;100508.19;4989627;28;20061;-59
2021/10/19 11:00:36;;;;;;;1.63;1.02;;;;;;;17.29;70.58;100504.44;4988589;28;20548;-57
2021/10/19 11:03:10;;;;;;;2.13;0.60;;;;;;;17.38;70.17;100504.28;4990656;28;20046;-57
2021/10/19 11:05:49;;;;;;;1.38;0.80;;;;;;;17.50;69.75;100504.22;4993039;28;20054;-57
2021/10/19 11:08:21;;;;;;;1.60;0.75;;;;;;;17.50;69.87;100490.13;4992273;28;20050;-58
2021/10/19 11:10:52;;;;;;;1.08;0.70;;;;;;;17.73;69.02;100497.97;4999284;28;20049;-58
2021/10/19 11:13:19;;;;;;;1.23;0.70;;;;;;;17.57;70.10;100495.13;5010845;28;20061;-57
2021/10/19 11:15:53;;;;;;;1.55;0.95;;;;;;;17.51;70.70;100488.13;4998367;28;20420;-58
2021/10/19 11:18:23;;;;;;;2.05;0.77;;;;;;;17.66;70.32;100487.34;4995079;28;20073;-56
2021/10/19 11:20:53;;;;;;;;;;;;;;;17.62;70.07;100492.06;4992989;28;20050;-58
2021/10/19 11:23:21;;;;;;;1.27;0.70;;;;;;;17.50;70.83;100489.31;4992425;28;19930;-58
2021/10/19 11:25:48;;;;;;;2.03;0.80;;;;;;;17.74;69.69;100486.31;5001512;28;20412;-58